Accueil
METAR-TAF:

METAR-TAF

Aéroports :

Aéroport de Dole-Jura

Dole, France

latitude: 47-02-34N, longitude: 005-26-06E, altitude: 196 m

Observation

Le bulletin a été fait il y a 33 minutes, à 14:00 UTC
Vent 15 kt de sud
Température 21°C
Humidité 46%
Pression 1023 hPa
Visibilité 10 km ou plus
pas de nuages en-dessous de 1500 mètres et pas de cumulonimbus.

METAR: LFGJ 191400Z AUTO 19015KT CAVOK 21/09 Q1023 NOSIG

Heure: 16:33 (14:33 UTC)

Prévision

Le bulletin a été fait il y a 3 heures et 33 minutes, à 11:00 UTC
Prévision valable du 19 à 12 UTC au 19 à 21 UTC
Vent 10 kt de sud/sud-ouest
Visibilité 10 km ou plus
pas de nuages en-dessous de 1500 mètres et pas de cumulonimbus.

TAF: LFGJ 191100Z 1912/1921 21010KT CAVOK

Observations et prévisions météorologiques de plus de 4000 aéroports (messages METAR et TAF).

Les stations disponibles sont représentées par des disques jaunes et rouges sur la carte.

Passer la souris dessus pour voir le nom de la station.

Cliquer dessus pour voir les observations et prévisions météorologiques.

Pour changer de carte: cliquez sur les boutons verts avec une croix noire pour zoomer, sur le bouton vert avec un tiret pour effectuer un zoom arrière, ou sur les flèches vertes pour les cartes adjacentes.


METAR-TAF: